sensor_id;sensor_type;location;lat;lon;timestamp;P1;durP1;ratioP1;P2;durP2;ratioP2
13303;SDS011;6720;51.958;4.540;2023-04-25T00:01:30;18.17;;;5.57;;
13303;SDS011;6720;51.958;4.540;2023-04-25T00:03:55;20.80;;;5.67;;
13303;SDS011;6720;51.958;4.540;2023-04-25T00:06:22;17.17;;;5.40;;
13303;SDS011;6720;51.958;4.540;2023-04-25T00:08:51;16.80;;;5.60;;
13303;SDS011;6720;51.958;4.540;2023-04-25T00:11:17;21.23;;;6.20;;
13303;SDS011;6720;51.958;4.540;2023-04-25T00:13:42;20.20;;;5.97;;
13303;SDS011;6720;51.958;4.540;2023-04-25T00:16:07;14.43;;;5.40;;
13303;SDS011;6720;51.958;4.540;2023-04-25T00:18:34;17.67;;;5.50;;
13303;SDS011;6720;51.958;4.540;2023-04-25T00:20:59;20.13;;;6.97;;
13303;SDS011;6720;51.958;4.540;2023-04-25T00:23:25;15.87;;;5.30;;
13303;SDS011;6720;51.958;4.540;2023-04-25T00:25:51;15.97;;;5.23;;
13303;SDS011;6720;51.958;4.540;2023-04-25T00:28:16;15.77;;;5.30;;
13303;SDS011;6720;51.958;4.540;2023-04-25T00:30:42;18.40;;;5.93;;
13303;SDS011;6720;51.958;4.540;2023-04-25T00:33:08;11.73;;;4.90;;
13303;SDS011;6720;51.958;4.540;2023-04-25T00:35:34;15.63;;;5.50;;
13303;SDS011;6720;51.958;4.540;2023-04-25T00:38:00;15.03;;;5.23;;
13303;SDS011;6720;51.958;4.540;2023-04-25T00:40:25;15.37;;;5.50;;
13303;SDS011;6720;51.958;4.540;2023-04-25T00:42:51;15.00;;;5.57;;
13303;SDS011;6720;51.958;4.540;2023-04-25T00:45:17;15.23;;;5.67;;
13303;SDS011;6720;51.958;4.540;2023-04-25T00:47:43;13.27;;;5.10;;
13303;SDS011;6720;51.958;4.540;2023-04-25T00:50:10;13.87;;;4.97;;
13303;SDS011;6720;51.958;4.540;2023-04-25T00:52:40;15.60;;;5.17;;
13303;SDS011;6720;51.958;4.540;2023-04-25T00:55:08;18.27;;;5.80;;
13303;SDS011;6720;51.958;4.540;2023-04-25T00:57:34;16.63;;;6.00;;
13303;SDS011;6720;51.958;4.540;2023-04-25T00:59:59;15.60;;;6.50;;
13303;SDS011;6720;51.958;4.540;2023-04-25T01:02:25;15.77;;;5.77;;
13303;SDS011;6720;51.958;4.540;2023-04-25T01:04:52;19.23;;;8.37;;
13303;SDS011;6720;51.958;4.540;2023-04-25T01:07:17;15.00;;;6.00;;
13303;SDS011;6720;51.958;4.540;2023-04-25T01:09:43;15.37;;;6.40;;
13303;SDS011;6720;51.958;4.540;2023-04-25T01:12:09;11.93;;;5.17;;
13303;SDS011;6720;51.958;4.540;2023-04-25T01:14:34;13.93;;;5.73;;
13303;SDS011;6720;51.958;4.540;2023-04-25T01:17:00;15.53;;;5.63;;
13303;SDS011;6720;51.958;4.540;2023-04-25T01:19:26;14.47;;;5.37;;
13303;SDS011;6720;51.958;4.540;2023-04-25T01:21:52;13.53;;;4.87;;
13303;SDS011;6720;51.958;4.540;2023-04-25T01:24:17;13.83;;;5.13;;
13303;SDS011;6720;51.958;4.540;2023-04-25T01:26:43;13.03;;;5.40;;
13303;SDS011;6720;51.958;4.540;2023-04-25T01:29:17;15.60;;;5.87;;
13303;SDS011;6720;51.958;4.540;2023-04-25T01:31:44;13.00;;;4.80;;
13303;SDS011;6720;51.958;4.540;2023-04-25T01:34:09;15.20;;;5.43;;
13303;SDS011;6720;51.958;4.540;2023-04-25T01:36:35;12.37;;;5.60;;
13303;SDS011;6720;51.958;4.540;2023-04-25T01:39:00;12.63;;;4.73;;
13303;SDS011;6720;51.958;4.540;2023-04-25T01:41:26;16.43;;;5.47;;
13303;SDS011;6720;51.958;4.540;2023-04-25T01:43:52;14.60;;;4.47;;
13303;SDS011;6720;51.958;4.540;2023-04-25T01:46:18;17.43;;;5.10;;
13303;SDS011;6720;51.958;4.540;2023-04-25T01:48:44;14.03;;;5.17;;
13303;SDS011;6720;51.958;4.540;2023-04-25T01:51:09;14.33;;;4.37;;
13303;SDS011;6720;51.958;4.540;2023-04-25T01:53:36;13.13;;;4.73;;
13303;SDS011;6720;51.958;4.540;2023-04-25T01:56:02;12.10;;;4.50;;
13303;SDS011;6720;51.958;4.540;2023-04-25T01:58:28;14.03;;;4.90;;
13303;SDS011;6720;51.958;4.540;2023-04-25T02:00:53;15.73;;;5.17;;
13303;SDS011;6720;51.958;4.540;2023-04-25T02:03:19;15.10;;;4.83;;
13303;SDS011;6720;51.958;4.540;2023-04-25T02:05:44;15.03;;;5.03;;
13303;SDS011;6720;51.958;4.540;2023-04-25T02:08:10;11.03;;;5.47;;
13303;SDS011;6720;51.958;4.540;2023-04-25T02:10:35;11.33;;;4.77;;
13303;SDS011;6720;51.958;4.540;2023-04-25T02:13:01;15.37;;;7.83;;
13303;SDS011;6720;51.958;4.540;2023-04-25T02:15:27;12.23;;;4.67;;
13303;SDS011;6720;51.958;4.540;2023-04-25T02:17:52;10.73;;;3.80;;
13303;SDS011;6720;51.958;4.540;2023-04-25T02:20:20;11.03;;;4.47;;
13303;SDS011;6720;51.958;4.540;2023-04-25T02:22:46;16.17;;;4.70;;
13303;SDS011;6720;51.958;4.540;2023-04-25T02:25:12;14.17;;;4.60;;
13303;SDS011;6720;51.958;4.540;2023-04-25T02:27:37;16.03;;;5.80;;
13303;SDS011;6720;51.958;4.540;2023-04-25T02:30:04;11.70;;;4.30;;
13303;SDS011;6720;51.958;4.540;2023-04-25T02:32:30;8.47;;;3.87;;
13303;SDS011;6720;51.958;4.540;2023-04-25T02:34:55;8.67;;;4.03;;
13303;SDS011;6720;51.958;4.540;2023-04-25T02:37:23;5.37;;;2.87;;
13303;SDS011;6720;51.958;4.540;2023-04-25T02:39:49;6.13;;;3.20;;
13303;SDS011;6720;51.958;4.540;2023-04-25T02:42:14;7.43;;;3.13;;
13303;SDS011;6720;51.958;4.540;2023-04-25T02:44:40;9.30;;;4.07;;
13303;SDS011;6720;51.958;4.540;2023-04-25T02:47:05;7.60;;;3.93;;
13303;SDS011;6720;51.958;4.540;2023-04-25T02:49:31;12.07;;;3.70;;
13303;SDS011;6720;51.958;4.540;2023-04-25T02:52:08;9.57;;;3.50;;
13303;SDS011;6720;51.958;4.540;2023-04-25T02:55:04;7.97;;;4.07;;
13303;SDS011;6720;51.958;4.540;2023-04-25T02:58:02;10.57;;;4.90;;
13303;SDS011;6720;51.958;4.540;2023-04-25T03:01:03;9.53;;;4.10;;
13303;SDS011;6720;51.958;4.540;2023-04-25T03:03:51;8.80;;;3.70;;
13303;SDS011;6720;51.958;4.540;2023-04-25T03:06:26;7.53;;;3.90;;
13303;SDS011;6720;51.958;4.540;2023-04-25T03:09:28;10.87;;;3.83;;
13303;SDS011;6720;51.958;4.540;2023-04-25T03:12:15;14.93;;;4.23;;
13303;SDS011;6720;51.958;4.540;2023-04-25T03:14:53;11.43;;;3.63;;
13303;SDS011;6720;51.958;4.540;2023-04-25T03:18:11;14.67;;;5.40;;
13303;SDS011;6720;51.958;4.540;2023-04-25T03:20:55;11.37;;;3.90;;
13303;SDS011;6720;51.958;4.540;2023-04-25T03:23:20;7.90;;;3.47;;
13303;SDS011;6720;51.958;4.540;2023-04-25T03:25:46;10.27;;;3.70;;
13303;SDS011;6720;51.958;4.540;2023-04-25T03:28:11;11.30;;;3.70;;
13303;SDS011;6720;51.958;4.540;2023-04-25T03:30:36;13.17;;;4.17;;
13303;SDS011;6720;51.958;4.540;2023-04-25T03:33:12;14.90;;;3.80;;
13303;SDS011;6720;51.958;4.540;2023-04-25T03:36:09;10.77;;;3.80;;
13303;SDS011;6720;51.958;4.540;2023-04-25T03:38:57;10.13;;;4.30;;
13303;SDS011;6720;51.958;4.540;2023-04-25T03:41:23;8.67;;;3.73;;
13303;SDS011;6720;51.958;4.540;2023-04-25T03:43:48;9.13;;;3.70;;
13303;SDS011;6720;51.958;4.540;2023-04-25T03:46:13;10.00;;;3.87;;
13303;SDS011;6720;51.958;4.540;2023-04-25T03:59:21;7.63;;;3.63;;
13303;SDS011;6720;51.958;4.540;2023-04-25T04:01:46;10.23;;;3.93;;
13303;SDS011;6720;51.958;4.540;2023-04-25T04:04:11;9.50;;;3.53;;
13303;SDS011;6720;51.958;4.540;2023-04-25T04:06:37;9.27;;;3.70;;
13303;SDS011;6720;51.958;4.540;2023-04-25T04:09:02;10.30;;;3.70;;
13303;SDS011;6720;51.958;4.540;2023-04-25T04:11:28;8.80;;;3.43;;
13303;SDS011;6720;51.958;4.540;2023-04-25T04:13:53;9.27;;;3.70;;
13303;SDS011;6720;51.958;4.540;2023-04-25T04:16:19;10.40;;;3.73;;
13303;SDS011;6720;51.958;4.540;2023-04-25T04:18:45;15.97;;;4.47;;
13303;SDS011;6720;51.958;4.540;2023-04-25T04:21:10;8.57;;;3.40;;
13303;SDS011;6720;51.958;4.540;2023-04-25T04:23:36;14.43;;;3.77;;
13303;SDS011;6720;51.958;4.540;2023-04-25T04:26:02;11.97;;;4.10;;
13303;SDS011;6720;51.958;4.540;2023-04-25T04:28:27;12.77;;;3.57;;
13303;SDS011;6720;51.958;4.540;2023-04-25T04:30:53;15.10;;;4.83;;
13303;SDS011;6720;51.958;4.540;2023-04-25T04:33:18;12.30;;;3.60;;
13303;SDS011;6720;51.958;4.540;2023-04-25T04:35:55;9.30;;;3.53;;
13303;SDS011;6720;51.958;4.540;2023-04-25T04:38:55;10.27;;;3.13;;
13303;SDS011;6720;51.958;4.540;2023-04-25T04:41:44;8.50;;;3.50;;
13303;SDS011;6720;51.958;4.540;2023-04-25T04:44:10;10.43;;;3.80;;
13303;SDS011;6720;51.958;4.540;2023-04-25T04:46:35;11.63;;;3.60;;
13303;SDS011;6720;51.958;4.540;2023-04-25T04:49:21;9.33;;;3.57;;
13303;SDS011;6720;51.958;4.540;2023-04-25T04:52:14;9.03;;;3.80;;
13303;SDS011;6720;51.958;4.540;2023-04-25T04:54:40;9.30;;;3.60;;
13303;SDS011;6720;51.958;4.540;2023-04-25T04:57:05;8.23;;;3.53;;
13303;SDS011;6720;51.958;4.540;2023-04-25T04:59:31;11.60;;;3.97;;
13303;SDS011;6720;51.958;4.540;2023-04-25T05:01:56;12.43;;;3.37;;
13303;SDS011;6720;51.958;4.540;2023-04-25T05:04:21;12.67;;;6.70;;
13303;SDS011;6720;51.958;4.540;2023-04-25T05:06:47;11.83;;;3.67;;
13303;SDS011;6720;51.958;4.540;2023-04-25T05:09:13;8.67;;;3.70;;
13303;SDS011;6720;51.958;4.540;2023-04-25T05:11:38;10.40;;;3.53;;
13303;SDS011;6720;51.958;4.540;2023-04-25T05:14:04;12.00;;;3.80;;
13303;SDS011;6720;51.958;4.540;2023-04-25T05:16:29;8.03;;;3.50;;
13303;SDS011;6720;51.958;4.540;2023-04-25T05:18:55;10.10;;;3.57;;
13303;SDS011;6720;51.958;4.540;2023-04-25T05:21:20;11.40;;;3.30;;
13303;SDS011;6720;51.958;4.540;2023-04-25T05:23:46;13.77;;;3.80;;
13303;SDS011;6720;51.958;4.540;2023-04-25T05:26:11;12.73;;;4.13;;
13303;SDS011;6720;51.958;4.540;2023-04-25T05:28:39;11.90;;;3.97;;
13303;SDS011;6720;51.958;4.540;2023-04-25T05:31:06;10.00;;;4.10;;
13303;SDS011;6720;51.958;4.540;2023-04-25T05:33:32;9.70;;;3.43;;
13303;SDS011;6720;51.958;4.540;2023-04-25T05:35:57;13.13;;;4.40;;
13303;SDS011;6720;51.958;4.540;2023-04-25T05:38:22;10.17;;;3.77;;
13303;SDS011;6720;51.958;4.540;2023-04-25T05:40:48;13.47;;;4.37;;
13303;SDS011;6720;51.958;4.540;2023-04-25T05:43:13;9.87;;;4.50;;
13303;SDS011;6720;51.958;4.540;2023-04-25T05:45:39;12.23;;;4.00;;
13303;SDS011;6720;51.958;4.540;2023-04-25T05:48:04;11.47;;;4.07;;
13303;SDS011;6720;51.958;4.540;2023-04-25T05:50:30;9.90;;;3.77;;
13303;SDS011;6720;51.958;4.540;2023-04-25T05:52:56;12.00;;;4.97;;
13303;SDS011;6720;51.958;4.540;2023-04-25T05:55:22;10.23;;;3.33;;
13303;SDS011;6720;51.958;4.540;2023-04-25T05:57:47;6.63;;;3.73;;
13303;SDS011;6720;51.958;4.540;2023-04-25T06:00:13;6.63;;;3.47;;
13303;SDS011;6720;51.958;4.540;2023-04-25T06:02:40;7.43;;;2.90;;
13303;SDS011;6720;51.958;4.540;2023-04-25T06:05:05;6.40;;;2.67;;
13303;SDS011;6720;51.958;4.540;2023-04-25T06:07:31;8.63;;;5.50;;
13303;SDS011;6720;51.958;4.540;2023-04-25T06:09:57;12.83;;;6.90;;
13303;SDS011;6720;51.958;4.540;2023-04-25T06:12:22;7.13;;;2.50;;
13303;SDS011;6720;51.958;4.540;2023-04-25T06:14:48;6.90;;;3.03;;
13303;SDS011;6720;51.958;4.540;2023-04-25T06:17:14;5.53;;;2.80;;
13303;SDS011;6720;51.958;4.540;2023-04-25T06:19:39;5.83;;;3.43;;
13303;SDS011;6720;51.958;4.540;2023-04-25T06:22:05;4.27;;;2.77;;
13303;SDS011;6720;51.958;4.540;2023-04-25T06:24:32;5.57;;;2.70;;
13303;SDS011;6720;51.958;4.540;2023-04-25T06:26:58;5.27;;;2.77;;
13303;SDS011;6720;51.958;4.540;2023-04-25T06:29:24;5.67;;;2.97;;
13303;SDS011;6720;51.958;4.540;2023-04-25T06:31:49;7.10;;;2.73;;
13303;SDS011;6720;51.958;4.540;2023-04-25T06:34:15;7.40;;;3.00;;
13303;SDS011;6720;51.958;4.540;2023-04-25T06:36:40;5.60;;;3.43;;
13303;SDS011;6720;51.958;4.540;2023-04-25T06:39:06;4.50;;;2.70;;
13303;SDS011;6720;51.958;4.540;2023-04-25T06:41:43;7.27;;;2.77;;
13303;SDS011;6720;51.958;4.540;2023-04-25T06:44:26;3.03;;;2.23;;
13303;SDS011;6720;51.958;4.540;2023-04-25T06:46:54;7.43;;;2.70;;
13303;SDS011;6720;51.958;4.540;2023-04-25T06:49:20;4.50;;;2.13;;
13303;SDS011;6720;51.958;4.540;2023-04-25T06:51:46;4.73;;;2.50;;
13303;SDS011;6720;51.958;4.540;2023-04-25T06:54:13;5.07;;;2.30;;
13303;SDS011;6720;51.958;4.540;2023-04-25T06:56:38;3.77;;;2.23;;
13303;SDS011;6720;51.958;4.540;2023-04-25T06:59:04;5.73;;;2.10;;
13303;SDS011;6720;51.958;4.540;2023-04-25T07:01:29;5.63;;;2.37;;
13303;SDS011;6720;51.958;4.540;2023-04-25T07:03:55;4.63;;;2.40;;
13303;SDS011;6720;51.958;4.540;2023-04-25T07:06:20;6.57;;;2.40;;
13303;SDS011;6720;51.958;4.540;2023-04-25T07:08:46;5.03;;;2.17;;
13303;SDS011;6720;51.958;4.540;2023-04-25T07:11:11;6.67;;;2.30;;
13303;SDS011;6720;51.958;4.540;2023-04-25T07:13:36;5.47;;;2.70;;
13303;SDS011;6720;51.958;4.540;2023-04-25T07:16:02;6.03;;;2.87;;
13303;SDS011;6720;51.958;4.540;2023-04-25T07:18:40;6.33;;;3.03;;
13303;SDS011;6720;51.958;4.540;2023-04-25T07:21:09;7.07;;;2.90;;
13303;SDS011;6720;51.958;4.540;2023-04-25T07:23:34;8.13;;;2.73;;
13303;SDS011;6720;51.958;4.540;2023-04-25T07:26:00;6.30;;;2.40;;
13303;SDS011;6720;51.958;4.540;2023-04-25T07:28:25;7.60;;;2.20;;
13303;SDS011;6720;51.958;4.540;2023-04-25T07:30:50;6.37;;;2.53;;
13303;SDS011;6720;51.958;4.540;2023-04-25T07:33:16;8.63;;;3.00;;
13303;SDS011;6720;51.958;4.540;2023-04-25T07:35:42;7.80;;;2.40;;
13303;SDS011;6720;51.958;4.540;2023-04-25T07:38:07;6.23;;;3.23;;
13303;SDS011;6720;51.958;4.540;2023-04-25T07:40:33;7.80;;;2.40;;
13303;SDS011;6720;51.958;4.540;2023-04-25T07:42:59;6.70;;;2.33;;
13303;SDS011;6720;51.958;4.540;2023-04-25T07:45:24;8.80;;;3.90;;
13303;SDS011;6720;51.958;4.540;2023-04-25T07:47:50;6.10;;;2.73;;
13303;SDS011;6720;51.958;4.540;2023-04-25T07:50:17;11.33;;;5.57;;
13303;SDS011;6720;51.958;4.540;2023-04-25T07:52:44;6.37;;;2.77;;
13303;SDS011;6720;51.958;4.540;2023-04-25T07:55:09;7.00;;;2.43;;
13303;SDS011;6720;51.958;4.540;2023-04-25T07:57:35;8.93;;;2.93;;
13303;SDS011;6720;51.958;4.540;2023-04-25T08:00:00;7.07;;;2.53;;
13303;SDS011;6720;51.958;4.540;2023-04-25T08:02:26;9.03;;;2.40;;
13303;SDS011;6720;51.958;4.540;2023-04-25T08:04:53;8.07;;;3.00;;
13303;SDS011;6720;51.958;4.540;2023-04-25T08:07:18;10.17;;;3.57;;
13303;SDS011;6720;51.958;4.540;2023-04-25T08:09:46;5.40;;;2.20;;
13303;SDS011;6720;51.958;4.540;2023-04-25T08:12:13;4.77;;;2.17;;
13303;SDS011;6720;51.958;4.540;2023-04-25T08:14:39;6.47;;;2.47;;
13303;SDS011;6720;51.958;4.540;2023-04-25T08:17:05;7.83;;;2.60;;
13303;SDS011;6720;51.958;4.540;2023-04-25T08:19:30;6.83;;;2.50;;
13303;SDS011;6720;51.958;4.540;2023-04-25T08:21:56;8.77;;;2.90;;
13303;SDS011;6720;51.958;4.540;2023-04-25T08:24:22;6.47;;;3.20;;
13303;SDS011;6720;51.958;4.540;2023-04-25T08:26:48;4.83;;;2.30;;
13303;SDS011;6720;51.958;4.540;2023-04-25T08:29:14;8.47;;;2.57;;
13303;SDS011;6720;51.958;4.540;2023-04-25T08:31:39;4.07;;;2.20;;
13303;SDS011;6720;51.958;4.540;2023-04-25T08:34:05;7.50;;;2.90;;
13303;SDS011;6720;51.958;4.540;2023-04-25T08:36:31;7.20;;;2.97;;
13303;SDS011;6720;51.958;4.540;2023-04-25T08:38:57;7.87;;;4.13;;
13303;SDS011;6720;51.958;4.540;2023-04-25T08:41:23;7.13;;;2.73;;
13303;SDS011;6720;51.958;4.540;2023-04-25T08:43:50;6.07;;;3.40;;
13303;SDS011;6720;51.958;4.540;2023-04-25T08:46:19;6.70;;;2.60;;
13303;SDS011;6720;51.958;4.540;2023-04-25T08:48:45;5.00;;;2.30;;
13303;SDS011;6720;51.958;4.540;2023-04-25T08:51:21;8.20;;;2.67;;
13303;SDS011;6720;51.958;4.540;2023-04-25T08:53:50;8.70;;;2.60;;
13303;SDS011;6720;51.958;4.540;2023-04-25T08:56:17;6.30;;;3.17;;
13303;SDS011;6720;51.958;4.540;2023-04-25T08:58:47;5.83;;;2.60;;
13303;SDS011;6720;51.958;4.540;2023-04-25T09:01:13;7.13;;;2.30;;
13303;SDS011;6720;51.958;4.540;2023-04-25T09:03:39;9.53;;;2.80;;
13303;SDS011;6720;51.958;4.540;2023-04-25T09:06:05;7.63;;;2.40;;
13303;SDS011;6720;51.958;4.540;2023-04-25T09:08:31;8.03;;;2.60;;
13303;SDS011;6720;51.958;4.540;2023-04-25T09:10:58;7.47;;;2.40;;
13303;SDS011;6720;51.958;4.540;2023-04-25T09:13:27;7.53;;;2.13;;
13303;SDS011;6720;51.958;4.540;2023-04-25T09:15:55;6.83;;;2.40;;
13303;SDS011;6720;51.958;4.540;2023-04-25T09:18:28;4.10;;;2.20;;
13303;SDS011;6720;51.958;4.540;2023-04-25T09:20:56;6.20;;;2.97;;
13303;SDS011;6720;51.958;4.540;2023-04-25T09:23:24;4.87;;;2.37;;
13303;SDS011;6720;51.958;4.540;2023-04-25T09:25:50;6.20;;;2.47;;
13303;SDS011;6720;51.958;4.540;2023-04-25T09:28:25;4.33;;;1.87;;
13303;SDS011;6720;51.958;4.540;2023-04-25T09:30:56;4.83;;;2.20;;
13303;SDS011;6720;51.958;4.540;2023-04-25T09:33:28;5.13;;;1.90;;
13303;SDS011;6720;51.958;4.540;2023-04-25T09:35:56;4.43;;;1.90;;
13303;SDS011;6720;51.958;4.540;2023-04-25T09:38:27;6.57;;;2.83;;
13303;SDS011;6720;51.958;4.540;2023-04-25T09:40:55;6.87;;;2.17;;
13303;SDS011;6720;51.958;4.540;2023-04-25T09:43:22;8.20;;;2.40;;
13303;SDS011;6720;51.958;4.540;2023-04-25T09:45:49;8.33;;;2.77;;
13303;SDS011;6720;51.958;4.540;2023-04-25T09:48:22;6.33;;;4.33;;
13303;SDS011;6720;51.958;4.540;2023-04-25T09:53:35;5.23;;;2.17;;
13303;SDS011;6720;51.958;4.540;2023-04-25T09:56:03;5.10;;;2.57;;
13303;SDS011;6720;51.958;4.540;2023-04-25T09:58:31;4.07;;;2.27;;
13303;SDS011;6720;51.958;4.540;2023-04-25T10:00:59;7.73;;;2.83;;
13303;SDS011;6720;51.958;4.540;2023-04-25T10:03:26;7.67;;;2.93;;
13303;SDS011;6720;51.958;4.540;2023-04-25T10:05:56;6.90;;;2.73;;
13303;SDS011;6720;51.958;4.540;2023-04-25T10:08:24;7.83;;;2.70;;
13303;SDS011;6720;51.958;4.540;2023-04-25T10:10:52;7.03;;;2.83;;
13303;SDS011;6720;51.958;4.540;2023-04-25T10:13:17;6.57;;;2.77;;
13303;SDS011;6720;51.958;4.540;2023-04-25T10:15:43;6.37;;;2.73;;
13303;SDS011;6720;51.958;4.540;2023-04-25T10:18:10;7.13;;;2.57;;
13303;SDS011;6720;51.958;4.540;2023-04-25T10:20:36;8.17;;;2.80;;
13303;SDS011;6720;51.958;4.540;2023-04-25T10:23:11;8.73;;;2.70;;
13303;SDS011;6720;51.958;4.540;2023-04-25T10:25:38;6.57;;;3.10;;
13303;SDS011;6720;51.958;4.540;2023-04-25T10:28:05;9.30;;;2.77;;
13303;SDS011;6720;51.958;4.540;2023-04-25T10:30:32;7.00;;;3.20;;
13303;SDS011;6720;51.958;4.540;2023-04-25T10:32:58;8.50;;;3.33;;
13303;SDS011;6720;51.958;4.540;2023-04-25T10:35:25;9.97;;;3.57;;
13303;SDS011;6720;51.958;4.540;2023-04-25T10:37:59;9.10;;;2.73;;
13303;SDS011;6720;51.958;4.540;2023-04-25T10:40:25;5.60;;;2.30;;
13303;SDS011;6720;51.958;4.540;2023-04-25T10:42:54;11.87;;;3.10;;
13303;SDS011;6720;51.958;4.540;2023-04-25T10:45:20;5.97;;;2.20;;
13303;SDS011;6720;51.958;4.540;2023-04-25T10:47:46;8.77;;;2.97;;
13303;SDS011;6720;51.958;4.540;2023-04-25T10:50:13;8.03;;;2.93;;
13303;SDS011;6720;51.958;4.540;2023-04-25T10:52:41;7.47;;;2.50;;
13303;SDS011;6720;51.958;4.540;2023-04-25T10:55:07;6.40;;;2.77;;
13303;SDS011;6720;51.958;4.540;2023-04-25T11:02:43;6.63;;;2.80;;
13303;SDS011;6720;51.958;4.540;2023-04-25T11:05:16;5.87;;;2.63;;
13303;SDS011;6720;51.958;4.540;2023-04-25T11:10:17;9.03;;;3.00;;
13303;SDS011;6720;51.958;4.540;2023-04-25T11:12:43;7.80;;;3.10;;
13303;SDS011;6720;51.958;4.540;2023-04-25T11:15:09;6.13;;;2.30;;
13303;SDS011;6720;51.958;4.540;2023-04-25T11:17:35;4.27;;;2.20;;
13303;SDS011;6720;51.958;4.540;2023-04-25T11:20:00;6.40;;;2.57;;
13303;SDS011;6720;51.958;4.540;2023-04-25T11:22:26;6.90;;;2.43;;
13303;SDS011;6720;51.958;4.540;2023-04-25T11:24:53;6.40;;;2.50;;
13303;SDS011;6720;51.958;4.540;2023-04-25T11:27:18;6.17;;;2.37;;
13303;SDS011;6720;51.958;4.540;2023-04-25T11:29:44;5.57;;;2.13;;
13303;SDS011;6720;51.958;4.540;2023-04-25T11:32:10;6.47;;;2.47;;
13303;SDS011;6720;51.958;4.540;2023-04-25T11:34:35;5.67;;;2.23;;
13303;SDS011;6720;51.958;4.540;2023-04-25T11:37:01;5.90;;;3.80;;
13303;SDS011;6720;51.958;4.540;2023-04-25T11:39:27;6.53;;;2.53;;
13303;SDS011;6720;51.958;4.540;2023-04-25T11:41:53;6.23;;;2.97;;
13303;SDS011;6720;51.958;4.540;2023-04-25T11:44:19;6.27;;;2.40;;
13303;SDS011;6720;51.958;4.540;2023-04-25T11:46:46;7.87;;;2.70;;
13303;SDS011;6720;51.958;4.540;2023-04-25T11:49:12;5.87;;;2.50;;
13303;SDS011;6720;51.958;4.540;2023-04-25T11:51:39;8.97;;;2.97;;
13303;SDS011;6720;51.958;4.540;2023-04-25T11:54:05;5.10;;;2.40;;
13303;SDS011;6720;51.958;4.540;2023-04-25T11:56:31;7.07;;;2.53;;
13303;SDS011;6720;51.958;4.540;2023-04-25T11:59:00;3.90;;;2.67;;
13303;SDS011;6720;51.958;4.540;2023-04-25T12:01:31;6.00;;;2.37;;
13303;SDS011;6720;51.958;4.540;2023-04-25T12:06:41;6.03;;;2.37;;
13303;SDS011;6720;51.958;4.540;2023-04-25T12:09:07;6.37;;;3.50;;
13303;SDS011;6720;51.958;4.540;2023-04-25T12:11:40;4.20;;;2.70;;
13303;SDS011;6720;51.958;4.540;2023-04-25T12:14:07;5.07;;;2.80;;
13303;SDS011;6720;51.958;4.540;2023-04-25T12:16:42;6.73;;;2.27;;
13303;SDS011;6720;51.958;4.540;2023-04-25T12:19:09;5.67;;;2.50;;
13303;SDS011;6720;51.958;4.540;2023-04-25T12:21:35;7.23;;;2.20;;
13303;SDS011;6720;51.958;4.540;2023-04-25T12:24:10;8.57;;;2.50;;
13303;SDS011;6720;51.958;4.540;2023-04-25T12:26:49;4.77;;;2.20;;
13303;SDS011;6720;51.958;4.540;2023-04-25T12:29:35;5.50;;;2.30;;
13303;SDS011;6720;51.958;4.540;2023-04-25T12:32:01;6.03;;;3.00;;
13303;SDS011;6720;51.958;4.540;2023-04-25T12:34:26;7.47;;;2.73;;
13303;SDS011;6720;51.958;4.540;2023-04-25T12:36:52;5.10;;;2.47;;
13303;SDS011;6720;51.958;4.540;2023-04-25T12:39:19;7.33;;;2.53;;
13303;SDS011;6720;51.958;4.540;2023-04-25T12:41:46;4.10;;;2.53;;
13303;SDS011;6720;51.958;4.540;2023-04-25T12:44:13;7.73;;;2.80;;
13303;SDS011;6720;51.958;4.540;2023-04-25T12:46:38;4.60;;;2.20;;
13303;SDS011;6720;51.958;4.540;2023-04-25T12:49:05;6.90;;;2.70;;
13303;SDS011;6720;51.958;4.540;2023-04-25T12:51:32;7.07;;;2.40;;
13303;SDS011;6720;51.958;4.540;2023-04-25T12:54:01;5.93;;;2.27;;
13303;SDS011;6720;51.958;4.540;2023-04-25T12:56:27;6.23;;;2.47;;
13303;SDS011;6720;51.958;4.540;2023-04-25T12:58:53;5.17;;;2.80;;
13303;SDS011;6720;51.958;4.540;2023-04-25T13:01:19;6.53;;;2.10;;
13303;SDS011;6720;51.958;4.540;2023-04-25T13:03:46;6.73;;;2.83;;
13303;SDS011;6720;51.958;4.540;2023-04-25T13:06:12;6.77;;;3.00;;
13303;SDS011;6720;51.958;4.540;2023-04-25T13:08:38;5.87;;;3.53;;
13303;SDS011;6720;51.958;4.540;2023-04-25T13:11:04;6.90;;;2.30;;
13303;SDS011;6720;51.958;4.540;2023-04-25T13:13:30;7.40;;;3.60;;
13303;SDS011;6720;51.958;4.540;2023-04-25T13:15:57;5.07;;;2.50;;
13303;SDS011;6720;51.958;4.540;2023-04-25T13:18:22;7.13;;;2.60;;
13303;SDS011;6720;51.958;4.540;2023-04-25T13:20:51;5.13;;;2.20;;
13303;SDS011;6720;51.958;4.540;2023-04-25T13:23:17;5.53;;;2.60;;
13303;SDS011;6720;51.958;4.540;2023-04-25T13:25:42;6.03;;;2.70;;
13303;SDS011;6720;51.958;4.540;2023-04-25T13:28:08;5.83;;;2.53;;
13303;SDS011;6720;51.958;4.540;2023-04-25T13:30:33;11.47;;;3.13;;
13303;SDS011;6720;51.958;4.540;2023-04-25T13:32:59;5.53;;;2.50;;
13303;SDS011;6720;51.958;4.540;2023-04-25T13:35:28;6.70;;;3.17;;
13303;SDS011;6720;51.958;4.540;2023-04-25T13:37:55;7.17;;;2.70;;
13303;SDS011;6720;51.958;4.540;2023-04-25T13:40:21;8.37;;;3.07;;
13303;SDS011;6720;51.958;4.540;2023-04-25T13:42:46;8.73;;;2.70;;
13303;SDS011;6720;51.958;4.540;2023-04-25T13:45:12;7.60;;;3.90;;
13303;SDS011;6720;51.958;4.540;2023-04-25T13:47:37;6.57;;;3.30;;
13303;SDS011;6720;51.958;4.540;2023-04-25T13:50:03;7.00;;;2.60;;
13303;SDS011;6720;51.958;4.540;2023-04-25T13:52:33;4.90;;;2.20;;
13303;SDS011;6720;51.958;4.540;2023-04-25T13:54:58;5.87;;;2.40;;
13303;SDS011;6720;51.958;4.540;2023-04-25T13:57:24;4.27;;;2.33;;
13303;SDS011;6720;51.958;4.540;2023-04-25T13:59:50;7.33;;;2.40;;
13303;SDS011;6720;51.958;4.540;2023-04-25T14:02:16;7.07;;;2.80;;
13303;SDS011;6720;51.958;4.540;2023-04-25T14:04:41;6.13;;;2.77;;
13303;SDS011;6720;51.958;4.540;2023-04-25T14:07:07;4.33;;;2.70;;
13303;SDS011;6720;51.958;4.540;2023-04-25T14:09:33;7.73;;;2.83;;
13303;SDS011;6720;51.958;4.540;2023-04-25T14:12:00;5.13;;;2.10;;
13303;SDS011;6720;51.958;4.540;2023-04-25T14:14:27;6.40;;;2.73;;
13303;SDS011;6720;51.958;4.540;2023-04-25T14:16:53;5.23;;;2.70;;
13303;SDS011;6720;51.958;4.540;2023-04-25T14:19:22;6.77;;;2.93;;
13303;SDS011;6720;51.958;4.540;2023-04-25T14:21:48;6.03;;;3.97;;
13303;SDS011;6720;51.958;4.540;2023-04-25T14:24:14;5.47;;;2.83;;
13303;SDS011;6720;51.958;4.540;2023-04-25T14:26:39;7.00;;;2.27;;
13303;SDS011;6720;51.958;4.540;2023-04-25T14:29:06;8.43;;;2.40;;
13303;SDS011;6720;51.958;4.540;2023-04-25T14:31:32;5.27;;;2.90;;
13303;SDS011;6720;51.958;4.540;2023-04-25T14:33:59;3.73;;;1.97;;
13303;SDS011;6720;51.958;4.540;2023-04-25T14:36:25;6.87;;;3.83;;
13303;SDS011;6720;51.958;4.540;2023-04-25T14:38:51;6.77;;;2.97;;
13303;SDS011;6720;51.958;4.540;2023-04-25T14:41:17;4.40;;;2.80;;
13303;SDS011;6720;51.958;4.540;2023-04-25T14:43:43;5.07;;;2.77;;
13303;SDS011;6720;51.958;4.540;2023-04-25T14:46:10;5.60;;;2.80;;
13303;SDS011;6720;51.958;4.540;2023-04-25T14:48:35;5.17;;;2.10;;
13303;SDS011;6720;51.958;4.540;2023-04-25T14:51:01;3.93;;;2.23;;
13303;SDS011;6720;51.958;4.540;2023-04-25T14:53:27;6.13;;;3.07;;
13303;SDS011;6720;51.958;4.540;2023-04-25T14:55:52;5.90;;;2.47;;
13303;SDS011;6720;51.958;4.540;2023-04-25T14:58:18;4.87;;;3.20;;
13303;SDS011;6720;51.958;4.540;2023-04-25T15:00:44;7.13;;;2.50;;
13303;SDS011;6720;51.958;4.540;2023-04-25T15:03:11;5.50;;;2.20;;
13303;SDS011;6720;51.958;4.540;2023-04-25T15:05:38;7.23;;;2.73;;
13303;SDS011;6720;51.958;4.540;2023-04-25T15:08:04;5.03;;;2.80;;
13303;SDS011;6720;51.958;4.540;2023-04-25T15:10:30;5.57;;;2.70;;
13303;SDS011;6720;51.958;4.540;2023-04-25T15:12:55;8.53;;;3.07;;
13303;SDS011;6720;51.958;4.540;2023-04-25T15:15:21;8.57;;;3.17;;
13303;SDS011;6720;51.958;4.540;2023-04-25T15:17:47;5.57;;;2.80;;
13303;SDS011;6720;51.958;4.540;2023-04-25T15:20:12;7.50;;;4.73;;
13303;SDS011;6720;51.958;4.540;2023-04-25T15:22:39;8.90;;;4.80;;
13303;SDS011;6720;51.958;4.540;2023-04-25T15:25:06;8.27;;;3.93;;